sensor_id;sensor_type;location;lat;lon;timestamp;P1;durP1;ratioP1;P2;durP2;ratioP2
11791;SDS011;5953;52.372;9.918;2024-01-15T00:00:55;14.70;;;9.67;;
11791;SDS011;5953;52.372;9.918;2024-01-15T00:03:23;13.23;;;10.63;;
11791;SDS011;5953;52.372;9.918;2024-01-15T00:05:51;12.00;;;8.63;;
11791;SDS011;5953;52.372;9.918;2024-01-15T00:08:19;13.07;;;8.83;;
11791;SDS011;5953;52.372;9.918;2024-01-15T00:10:47;13.13;;;9.13;;
11791;SDS011;5953;52.372;9.918;2024-01-15T00:13:14;14.87;;;8.83;;
11791;SDS011;5953;52.372;9.918;2024-01-15T00:15:42;12.47;;;7.70;;
11791;SDS011;5953;52.372;9.918;2024-01-15T00:18:12;10.77;;;7.13;;
11791;SDS011;5953;52.372;9.918;2024-01-15T00:20:40;13.07;;;8.40;;
11791;SDS011;5953;52.372;9.918;2024-01-15T00:23:08;11.57;;;7.90;;
11791;SDS011;5953;52.372;9.918;2024-01-15T00:25:35;10.23;;;6.90;;
11791;SDS011;5953;52.372;9.918;2024-01-15T00:28:03;14.53;;;7.90;;
11791;SDS011;5953;52.372;9.918;2024-01-15T00:30:32;12.33;;;6.60;;
11791;SDS011;5953;52.372;9.918;2024-01-15T00:33:00;10.20;;;6.23;;
11791;SDS011;5953;52.372;9.918;2024-01-15T00:35:29;12.13;;;7.37;;
11791;SDS011;5953;52.372;9.918;2024-01-15T00:37:57;8.47;;;6.43;;
11791;SDS011;5953;52.372;9.918;2024-01-15T00:40:25;10.33;;;6.47;;
11791;SDS011;5953;52.372;9.918;2024-01-15T00:42:52;10.57;;;5.63;;
11791;SDS011;5953;52.372;9.918;2024-01-15T00:45:20;12.77;;;6.10;;
11791;SDS011;5953;52.372;9.918;2024-01-15T00:47:51;9.87;;;5.60;;
11791;SDS011;5953;52.372;9.918;2024-01-15T00:50:19;7.77;;;5.20;;
11791;SDS011;5953;52.372;9.918;2024-01-15T00:52:48;9.83;;;6.83;;
11791;SDS011;5953;52.372;9.918;2024-01-15T00:55:16;10.63;;;6.13;;
11791;SDS011;5953;52.372;9.918;2024-01-15T00:57:44;9.73;;;5.70;;
11791;SDS011;5953;52.372;9.918;2024-01-15T01:00:12;8.90;;;6.93;;
11791;SDS011;5953;52.372;9.918;2024-01-15T01:02:41;8.17;;;5.47;;
11791;SDS011;5953;52.372;9.918;2024-01-15T01:05:09;7.93;;;6.17;;
11791;SDS011;5953;52.372;9.918;2024-01-15T01:07:37;7.77;;;4.97;;
11791;SDS011;5953;52.372;9.918;2024-01-15T01:10:06;8.83;;;5.07;;
11791;SDS011;5953;52.372;9.918;2024-01-15T01:12:34;7.63;;;4.87;;
11791;SDS011;5953;52.372;9.918;2024-01-15T01:15:04;10.60;;;5.27;;
11791;SDS011;5953;52.372;9.918;2024-01-15T01:17:32;8.53;;;5.10;;
11791;SDS011;5953;52.372;9.918;2024-01-15T01:20:00;7.60;;;5.10;;
11791;SDS011;5953;52.372;9.918;2024-01-15T01:22:31;10.07;;;6.53;;
11791;SDS011;5953;52.372;9.918;2024-01-15T01:24:59;9.40;;;5.10;;
11791;SDS011;5953;52.372;9.918;2024-01-15T01:27:28;10.23;;;5.00;;
11791;SDS011;5953;52.372;9.918;2024-01-15T01:29:56;10.23;;;5.80;;
11791;SDS011;5953;52.372;9.918;2024-01-15T01:32:24;8.47;;;5.20;;
11791;SDS011;5953;52.372;9.918;2024-01-15T01:34:52;12.30;;;4.53;;
11791;SDS011;5953;52.372;9.918;2024-01-15T01:37:19;10.43;;;5.20;;
11791;SDS011;5953;52.372;9.918;2024-01-15T01:39:47;10.47;;;5.23;;
11791;SDS011;5953;52.372;9.918;2024-01-15T01:42:15;6.97;;;3.97;;
11791;SDS011;5953;52.372;9.918;2024-01-15T01:44:44;6.70;;;4.07;;
11791;SDS011;5953;52.372;9.918;2024-01-15T01:47:12;7.33;;;4.13;;
11791;SDS011;5953;52.372;9.918;2024-01-15T01:49:41;9.13;;;3.70;;
11791;SDS011;5953;52.372;9.918;2024-01-15T01:52:10;8.33;;;3.83;;
11791;SDS011;5953;52.372;9.918;2024-01-15T01:54:38;9.30;;;3.63;;
11791;SDS011;5953;52.372;9.918;2024-01-15T01:57:07;5.77;;;3.27;;
11791;SDS011;5953;52.372;9.918;2024-01-15T01:59:36;9.63;;;3.40;;
11791;SDS011;5953;52.372;9.918;2024-01-15T02:02:06;5.67;;;3.03;;
11791;SDS011;5953;52.372;9.918;2024-01-15T02:04:34;10.07;;;2.90;;
11791;SDS011;5953;52.372;9.918;2024-01-15T02:07:03;6.27;;;2.80;;
11791;SDS011;5953;52.372;9.918;2024-01-15T02:09:31;7.30;;;2.93;;
11791;SDS011;5953;52.372;9.918;2024-01-15T02:11:59;5.50;;;2.70;;
11791;SDS011;5953;52.372;9.918;2024-01-15T02:14:27;7.50;;;2.40;;
11791;SDS011;5953;52.372;9.918;2024-01-15T02:16:55;12.10;;;2.77;;
11791;SDS011;5953;52.372;9.918;2024-01-15T02:19:25;10.47;;;3.17;;
11791;SDS011;5953;52.372;9.918;2024-01-15T02:21:53;6.70;;;3.30;;
11791;SDS011;5953;52.372;9.918;2024-01-15T02:24:22;10.87;;;2.47;;
11791;SDS011;5953;52.372;9.918;2024-01-15T02:26:50;11.20;;;3.60;;
11791;SDS011;5953;52.372;9.918;2024-01-15T02:29:18;6.77;;;2.83;;
11791;SDS011;5953;52.372;9.918;2024-01-15T02:31:46;7.20;;;2.73;;
11791;SDS011;5953;52.372;9.918;2024-01-15T02:34:15;6.90;;;2.30;;
11791;SDS011;5953;52.372;9.918;2024-01-15T02:36:42;9.63;;;3.53;;
11791;SDS011;5953;52.372;9.918;2024-01-15T02:39:10;6.83;;;2.07;;
11791;SDS011;5953;52.372;9.918;2024-01-15T02:41:41;8.73;;;2.97;;
11791;SDS011;5953;52.372;9.918;2024-01-15T02:44:09;6.93;;;2.37;;
11791;SDS011;5953;52.372;9.918;2024-01-15T02:46:40;6.73;;;2.10;;
11791;SDS011;5953;52.372;9.918;2024-01-15T02:49:08;7.07;;;2.27;;
11791;SDS011;5953;52.372;9.918;2024-01-15T02:51:35;12.77;;;2.60;;
11791;SDS011;5953;52.372;9.918;2024-01-15T02:54:03;9.73;;;2.00;;
11791;SDS011;5953;52.372;9.918;2024-01-15T02:56:31;8.70;;;2.33;;
11791;SDS011;5953;52.372;9.918;2024-01-15T02:59:00;8.67;;;2.40;;
11791;SDS011;5953;52.372;9.918;2024-01-15T03:01:28;6.37;;;1.87;;
11791;SDS011;5953;52.372;9.918;2024-01-15T03:03:56;10.87;;;2.70;;
11791;SDS011;5953;52.372;9.918;2024-01-15T03:06:24;8.57;;;2.10;;
11791;SDS011;5953;52.372;9.918;2024-01-15T03:08:54;6.63;;;1.70;;
11791;SDS011;5953;52.372;9.918;2024-01-15T03:11:22;7.80;;;1.70;;
11791;SDS011;5953;52.372;9.918;2024-01-15T03:13:56;9.23;;;2.50;;
11791;SDS011;5953;52.372;9.918;2024-01-15T03:16:25;7.37;;;2.03;;
11791;SDS011;5953;52.372;9.918;2024-01-15T03:18:53;7.97;;;1.80;;
11791;SDS011;5953;52.372;9.918;2024-01-15T03:21:21;8.90;;;2.00;;
11791;SDS011;5953;52.372;9.918;2024-01-15T03:23:49;11.17;;;2.23;;
11791;SDS011;5953;52.372;9.918;2024-01-15T03:26:17;8.90;;;2.53;;
11791;SDS011;5953;52.372;9.918;2024-01-15T03:28:45;9.57;;;2.03;;
11791;SDS011;5953;52.372;9.918;2024-01-15T03:31:15;7.57;;;1.50;;
11791;SDS011;5953;52.372;9.918;2024-01-15T03:33:44;10.87;;;1.80;;
11791;SDS011;5953;52.372;9.918;2024-01-15T03:36:12;6.83;;;1.97;;
11791;SDS011;5953;52.372;9.918;2024-01-15T03:38:40;6.73;;;1.80;;
11791;SDS011;5953;52.372;9.918;2024-01-15T03:41:09;11.43;;;2.07;;
11791;SDS011;5953;52.372;9.918;2024-01-15T03:43:37;6.00;;;1.70;;
11791;SDS011;5953;52.372;9.918;2024-01-15T03:46:05;6.80;;;1.30;;
11791;SDS011;5953;52.372;9.918;2024-01-15T03:48:35;7.20;;;1.73;;
11791;SDS011;5953;52.372;9.918;2024-01-15T03:51:07;4.20;;;1.37;;
11791;SDS011;5953;52.372;9.918;2024-01-15T03:53:34;8.60;;;1.70;;
11791;SDS011;5953;52.372;9.918;2024-01-15T03:56:02;9.93;;;1.80;;
11791;SDS011;5953;52.372;9.918;2024-01-15T03:58:31;5.93;;;1.87;;
11791;SDS011;5953;52.372;9.918;2024-01-15T04:00:58;9.10;;;2.27;;
11791;SDS011;5953;52.372;9.918;2024-01-15T04:03:27;5.63;;;1.57;;
11791;SDS011;5953;52.372;9.918;2024-01-15T04:05:55;9.57;;;2.27;;
11791;SDS011;5953;52.372;9.918;2024-01-15T04:08:24;8.97;;;1.33;;
11791;SDS011;5953;52.372;9.918;2024-01-15T04:10:53;8.77;;;1.77;;
11791;SDS011;5953;52.372;9.918;2024-01-15T04:13:23;4.00;;;1.50;;
11791;SDS011;5953;52.372;9.918;2024-01-15T04:15:50;14.57;;;2.17;;
11791;SDS011;5953;52.372;9.918;2024-01-15T04:18:18;9.90;;;2.10;;
11791;SDS011;5953;52.372;9.918;2024-01-15T04:20:46;7.27;;;1.93;;
11791;SDS011;5953;52.372;9.918;2024-01-15T04:23:14;6.90;;;1.87;;
11791;SDS011;5953;52.372;9.918;2024-01-15T04:25:44;8.43;;;1.90;;
11791;SDS011;5953;52.372;9.918;2024-01-15T04:28:12;8.27;;;1.90;;
11791;SDS011;5953;52.372;9.918;2024-01-15T04:30:40;10.37;;;1.80;;
11791;SDS011;5953;52.372;9.918;2024-01-15T04:33:08;13.00;;;2.23;;
11791;SDS011;5953;52.372;9.918;2024-01-15T04:35:37;9.07;;;1.70;;
11791;SDS011;5953;52.372;9.918;2024-01-15T04:38:04;5.17;;;1.80;;
11791;SDS011;5953;52.372;9.918;2024-01-15T04:40:32;8.53;;;1.50;;
11791;SDS011;5953;52.372;9.918;2024-01-15T04:43:03;7.70;;;1.50;;
11791;SDS011;5953;52.372;9.918;2024-01-15T04:45:31;7.67;;;2.17;;
11791;SDS011;5953;52.372;9.918;2024-01-15T04:47:59;9.03;;;1.70;;
11791;SDS011;5953;52.372;9.918;2024-01-15T04:50:29;4.00;;;1.70;;
11791;SDS011;5953;52.372;9.918;2024-01-15T04:52:57;6.73;;;1.67;;
11791;SDS011;5953;52.372;9.918;2024-01-15T04:55:25;8.83;;;2.17;;
11791;SDS011;5953;52.372;9.918;2024-01-15T04:57:53;7.50;;;1.40;;
11791;SDS011;5953;52.372;9.918;2024-01-15T05:00:25;7.80;;;1.60;;
11791;SDS011;5953;52.372;9.918;2024-01-15T05:02:53;8.53;;;1.97;;
11791;SDS011;5953;52.372;9.918;2024-01-15T05:05:22;8.10;;;1.73;;
11791;SDS011;5953;52.372;9.918;2024-01-15T05:07:50;7.27;;;2.00;;
11791;SDS011;5953;52.372;9.918;2024-01-15T05:10:18;12.07;;;1.80;;
11791;SDS011;5953;52.372;9.918;2024-01-15T05:12:46;7.80;;;1.90;;
11791;SDS011;5953;52.372;9.918;2024-01-15T05:15:14;4.03;;;1.40;;
11791;SDS011;5953;52.372;9.918;2024-01-15T05:17:43;7.00;;;1.93;;
11791;SDS011;5953;52.372;9.918;2024-01-15T05:20:11;9.77;;;1.67;;
11791;SDS011;5953;52.372;9.918;2024-01-15T05:22:39;5.47;;;1.50;;
11791;SDS011;5953;52.372;9.918;2024-01-15T05:25:07;7.50;;;1.50;;
11791;SDS011;5953;52.372;9.918;2024-01-15T05:27:35;8.23;;;1.87;;
11791;SDS011;5953;52.372;9.918;2024-01-15T05:30:03;7.17;;;2.33;;
11791;SDS011;5953;52.372;9.918;2024-01-15T05:32:31;9.27;;;1.83;;
11791;SDS011;5953;52.372;9.918;2024-01-15T05:35:01;4.90;;;1.87;;
11791;SDS011;5953;52.372;9.918;2024-01-15T05:37:29;7.57;;;2.00;;
11791;SDS011;5953;52.372;9.918;2024-01-15T05:39:57;6.77;;;1.80;;
11791;SDS011;5953;52.372;9.918;2024-01-15T05:42:24;11.47;;;1.60;;
11791;SDS011;5953;52.372;9.918;2024-01-15T05:44:52;8.13;;;2.07;;
11791;SDS011;5953;52.372;9.918;2024-01-15T05:47:21;10.63;;;1.57;;
11791;SDS011;5953;52.372;9.918;2024-01-15T05:49:49;5.10;;;1.50;;
11791;SDS011;5953;52.372;9.918;2024-01-15T05:52:18;6.53;;;1.90;;
11791;SDS011;5953;52.372;9.918;2024-01-15T05:54:47;6.53;;;1.70;;
11791;SDS011;5953;52.372;9.918;2024-01-15T05:57:15;8.83;;;1.43;;
11791;SDS011;5953;52.372;9.918;2024-01-15T05:59:44;4.83;;;1.67;;
11791;SDS011;5953;52.372;9.918;2024-01-15T06:02:12;5.73;;;1.50;;
11791;SDS011;5953;52.372;9.918;2024-01-15T06:04:40;4.60;;;1.70;;
11791;SDS011;5953;52.372;9.918;2024-01-15T06:07:08;7.50;;;1.70;;
11791;SDS011;5953;52.372;9.918;2024-01-15T06:09:37;2.77;;;1.47;;
11791;SDS011;5953;52.372;9.918;2024-01-15T06:12:06;8.80;;;1.97;;
11791;SDS011;5953;52.372;9.918;2024-01-15T06:14:34;8.90;;;1.60;;
11791;SDS011;5953;52.372;9.918;2024-01-15T06:17:02;4.73;;;1.60;;
11791;SDS011;5953;52.372;9.918;2024-01-15T06:19:30;4.10;;;1.40;;
11791;SDS011;5953;52.372;9.918;2024-01-15T06:21:58;10.73;;;1.93;;
11791;SDS011;5953;52.372;9.918;2024-01-15T06:24:26;6.27;;;1.60;;
11791;SDS011;5953;52.372;9.918;2024-01-15T06:26:56;4.43;;;1.77;;
11791;SDS011;5953;52.372;9.918;2024-01-15T06:29:25;5.60;;;1.37;;
11791;SDS011;5953;52.372;9.918;2024-01-15T06:31:53;10.77;;;1.93;;
11791;SDS011;5953;52.372;9.918;2024-01-15T06:34:24;7.70;;;1.80;;
11791;SDS011;5953;52.372;9.918;2024-01-15T06:36:51;5.73;;;1.83;;
11791;SDS011;5953;52.372;9.918;2024-01-15T06:39:19;5.50;;;2.37;;
11791;SDS011;5953;52.372;9.918;2024-01-15T06:41:47;5.23;;;1.80;;
11791;SDS011;5953;52.372;9.918;2024-01-15T06:44:17;6.63;;;1.77;;
11791;SDS011;5953;52.372;9.918;2024-01-15T06:46:47;4.83;;;1.70;;
11791;SDS011;5953;52.372;9.918;2024-01-15T06:49:15;5.43;;;1.97;;
11791;SDS011;5953;52.372;9.918;2024-01-15T06:51:43;5.67;;;1.53;;
11791;SDS011;5953;52.372;9.918;2024-01-15T06:54:14;6.30;;;2.33;;
11791;SDS011;5953;52.372;9.918;2024-01-15T06:56:41;5.70;;;2.00;;
11791;SDS011;5953;52.372;9.918;2024-01-15T06:59:09;9.10;;;2.03;;
11791;SDS011;5953;52.372;9.918;2024-01-15T07:01:38;7.67;;;1.83;;
11791;SDS011;5953;52.372;9.918;2024-01-15T07:04:06;7.97;;;2.33;;
11791;SDS011;5953;52.372;9.918;2024-01-15T07:06:34;7.17;;;2.20;;
11791;SDS011;5953;52.372;9.918;2024-01-15T07:09:02;6.23;;;1.70;;
11791;SDS011;5953;52.372;9.918;2024-01-15T07:11:30;7.10;;;1.93;;
11791;SDS011;5953;52.372;9.918;2024-01-15T07:13:58;6.17;;;1.93;;
11791;SDS011;5953;52.372;9.918;2024-01-15T07:16:26;4.73;;;1.40;;
11791;SDS011;5953;52.372;9.918;2024-01-15T07:19:04;6.30;;;1.53;;
11791;SDS011;5953;52.372;9.918;2024-01-15T07:21:33;8.97;;;2.67;;
11791;SDS011;5953;52.372;9.918;2024-01-15T07:24:01;5.63;;;2.10;;
11791;SDS011;5953;52.372;9.918;2024-01-15T07:26:29;6.07;;;1.83;;
11791;SDS011;5953;52.372;9.918;2024-01-15T07:28:57;4.37;;;1.77;;
11791;SDS011;5953;52.372;9.918;2024-01-15T07:31:26;8.93;;;2.10;;
11791;SDS011;5953;52.372;9.918;2024-01-15T07:33:55;5.47;;;1.93;;
11791;SDS011;5953;52.372;9.918;2024-01-15T07:36:24;4.97;;;2.30;;
11791;SDS011;5953;52.372;9.918;2024-01-15T07:38:52;3.87;;;1.70;;
11791;SDS011;5953;52.372;9.918;2024-01-15T07:41:20;8.60;;;2.20;;
11791;SDS011;5953;52.372;9.918;2024-01-15T07:43:48;12.17;;;2.40;;
11791;SDS011;5953;52.372;9.918;2024-01-15T07:46:16;4.67;;;2.23;;
11791;SDS011;5953;52.372;9.918;2024-01-15T07:48:44;8.23;;;2.50;;
11791;SDS011;5953;52.372;9.918;2024-01-15T07:51:12;6.33;;;2.10;;
11791;SDS011;5953;52.372;9.918;2024-01-15T07:53:41;5.47;;;2.10;;
11791;SDS011;5953;52.372;9.918;2024-01-15T07:56:09;8.73;;;2.60;;
11791;SDS011;5953;52.372;9.918;2024-01-15T07:58:37;5.10;;;2.07;;
11791;SDS011;5953;52.372;9.918;2024-01-15T08:01:05;6.67;;;2.47;;
11791;SDS011;5953;52.372;9.918;2024-01-15T08:03:33;4.93;;;2.07;;
11791;SDS011;5953;52.372;9.918;2024-01-15T08:06:01;4.90;;;2.30;;
11791;SDS011;5953;52.372;9.918;2024-01-15T08:08:29;5.00;;;2.20;;
11791;SDS011;5953;52.372;9.918;2024-01-15T08:10:58;2.30;;;2.10;;
11791;SDS011;5953;52.372;9.918;2024-01-15T08:13:26;7.83;;;2.67;;
11791;SDS011;5953;52.372;9.918;2024-01-15T08:15:55;6.87;;;2.50;;
11791;SDS011;5953;52.372;9.918;2024-01-15T08:18:22;5.33;;;2.90;;
11791;SDS011;5953;52.372;9.918;2024-01-15T08:20:51;7.13;;;2.60;;
11791;SDS011;5953;52.372;9.918;2024-01-15T08:23:20;10.83;;;2.93;;
11791;SDS011;5953;52.372;9.918;2024-01-15T08:25:48;6.47;;;2.77;;
11791;SDS011;5953;52.372;9.918;2024-01-15T08:28:18;5.37;;;2.63;;
11791;SDS011;5953;52.372;9.918;2024-01-15T08:30:46;8.93;;;2.80;;
11791;SDS011;5953;52.372;9.918;2024-01-15T08:33:14;6.50;;;2.73;;
11791;SDS011;5953;52.372;9.918;2024-01-15T08:35:47;3.77;;;2.47;;
11791;SDS011;5953;52.372;9.918;2024-01-15T08:38:16;6.60;;;3.50;;
11791;SDS011;5953;52.372;9.918;2024-01-15T08:40:43;5.73;;;2.87;;
11791;SDS011;5953;52.372;9.918;2024-01-15T08:43:11;10.60;;;3.30;;
11791;SDS011;5953;52.372;9.918;2024-01-15T08:45:40;6.50;;;2.23;;
11791;SDS011;5953;52.372;9.918;2024-01-15T08:48:08;6.80;;;3.03;;
11791;SDS011;5953;52.372;9.918;2024-01-15T08:50:36;6.13;;;3.00;;
11791;SDS011;5953;52.372;9.918;2024-01-15T08:53:04;6.97;;;2.67;;
11791;SDS011;5953;52.372;9.918;2024-01-15T08:55:31;4.20;;;2.03;;
11791;SDS011;5953;52.372;9.918;2024-01-15T08:58:00;4.47;;;2.20;;
11791;SDS011;5953;52.372;9.918;2024-01-15T09:00:28;6.47;;;2.00;;
11791;SDS011;5953;52.372;9.918;2024-01-15T09:02:57;5.37;;;2.13;;
11791;SDS011;5953;52.372;9.918;2024-01-15T09:05:25;4.70;;;2.17;;
11791;SDS011;5953;52.372;9.918;2024-01-15T09:07:54;3.63;;;1.67;;
11791;SDS011;5953;52.372;9.918;2024-01-15T09:10:21;4.33;;;2.03;;
11791;SDS011;5953;52.372;9.918;2024-01-15T09:12:50;7.37;;;2.10;;
11791;SDS011;5953;52.372;9.918;2024-01-15T09:15:18;7.77;;;2.40;;
11791;SDS011;5953;52.372;9.918;2024-01-15T09:17:46;5.83;;;2.00;;
11791;SDS011;5953;52.372;9.918;2024-01-15T09:20:15;7.23;;;2.30;;
11791;SDS011;5953;52.372;9.918;2024-01-15T09:22:43;4.80;;;2.23;;
11791;SDS011;5953;52.372;9.918;2024-01-15T09:25:11;4.73;;;2.40;;
11791;SDS011;5953;52.372;9.918;2024-01-15T09:27:40;6.93;;;2.13;;
11791;SDS011;5953;52.372;9.918;2024-01-15T09:30:08;4.73;;;1.60;;
11791;SDS011;5953;52.372;9.918;2024-01-15T09:32:37;7.37;;;2.40;;
11791;SDS011;5953;52.372;9.918;2024-01-15T09:35:06;7.77;;;2.50;;
11791;SDS011;5953;52.372;9.918;2024-01-15T09:37:35;7.07;;;2.70;;
11791;SDS011;5953;52.372;9.918;2024-01-15T09:40:13;6.80;;;2.40;;
11791;SDS011;5953;52.372;9.918;2024-01-15T09:42:43;7.27;;;2.17;;
11791;SDS011;5953;52.372;9.918;2024-01-15T09:45:12;6.77;;;2.33;;
11791;SDS011;5953;52.372;9.918;2024-01-15T09:47:41;7.97;;;2.73;;
11791;SDS011;5953;52.372;9.918;2024-01-15T09:50:12;6.90;;;2.17;;
11791;SDS011;5953;52.372;9.918;2024-01-15T09:52:42;6.17;;;2.10;;
11791;SDS011;5953;52.372;9.918;2024-01-15T09:55:11;6.07;;;1.97;;
11791;SDS011;5953;52.372;9.918;2024-01-15T09:57:40;8.40;;;2.37;;
11791;SDS011;5953;52.372;9.918;2024-01-15T10:00:08;7.17;;;2.50;;
11791;SDS011;5953;52.372;9.918;2024-01-15T10:02:38;4.90;;;2.00;;
11791;SDS011;5953;52.372;9.918;2024-01-15T10:05:06;4.67;;;2.03;;
11791;SDS011;5953;52.372;9.918;2024-01-15T10:07:35;5.33;;;1.87;;
11791;SDS011;5953;52.372;9.918;2024-01-15T10:10:06;6.63;;;2.10;;
11791;SDS011;5953;52.372;9.918;2024-01-15T10:12:35;5.40;;;1.80;;
11791;SDS011;5953;52.372;9.918;2024-01-15T10:15:04;5.97;;;2.33;;
11791;SDS011;5953;52.372;9.918;2024-01-15T10:17:32;4.07;;;1.70;;
11791;SDS011;5953;52.372;9.918;2024-01-15T10:20:00;5.47;;;2.10;;
11791;SDS011;5953;52.372;9.918;2024-01-15T10:22:30;3.77;;;2.23;;
11791;SDS011;5953;52.372;9.918;2024-01-15T10:24:58;3.90;;;2.07;;
11791;SDS011;5953;52.372;9.918;2024-01-15T10:27:28;5.30;;;1.47;;
11791;SDS011;5953;52.372;9.918;2024-01-15T10:29:58;6.03;;;2.00;;
11791;SDS011;5953;52.372;9.918;2024-01-15T10:32:27;4.03;;;1.73;;
11791;SDS011;5953;52.372;9.918;2024-01-15T10:34:54;3.77;;;2.00;;
11791;SDS011;5953;52.372;9.918;2024-01-15T10:37:23;3.23;;;1.63;;
11791;SDS011;5953;52.372;9.918;2024-01-15T10:39:55;4.27;;;1.77;;
11791;SDS011;5953;52.372;9.918;2024-01-15T10:42:23;1.97;;;1.60;;
11791;SDS011;5953;52.372;9.918;2024-01-15T10:44:52;5.23;;;1.90;;
11791;SDS011;5953;52.372;9.918;2024-01-15T10:47:20;2.27;;;1.40;;
11791;SDS011;5953;52.372;9.918;2024-01-15T10:49:48;5.00;;;2.17;;
11791;SDS011;5953;52.372;9.918;2024-01-15T10:52:17;6.10;;;1.87;;
11791;SDS011;5953;52.372;9.918;2024-01-15T10:54:45;5.33;;;2.30;;
11791;SDS011;5953;52.372;9.918;2024-01-15T10:57:14;4.10;;;2.17;;
11791;SDS011;5953;52.372;9.918;2024-01-15T10:59:43;4.27;;;1.90;;
11791;SDS011;5953;52.372;9.918;2024-01-15T11:02:13;4.43;;;1.70;;
11791;SDS011;5953;52.372;9.918;2024-01-15T11:04:42;6.60;;;2.37;;
11791;SDS011;5953;52.372;9.918;2024-01-15T11:07:10;4.40;;;2.13;;
11791;SDS011;5953;52.372;9.918;2024-01-15T11:09:39;6.10;;;2.43;;
11791;SDS011;5953;52.372;9.918;2024-01-15T11:12:07;5.70;;;1.80;;
11791;SDS011;5953;52.372;9.918;2024-01-15T11:14:41;6.10;;;1.60;;
11791;SDS011;5953;52.372;9.918;2024-01-15T11:17:14;5.57;;;2.10;;
11791;SDS011;5953;52.372;9.918;2024-01-15T11:19:43;6.73;;;1.67;;
11791;SDS011;5953;52.372;9.918;2024-01-15T11:25:13;7.60;;;1.63;;
11791;SDS011;5953;52.372;9.918;2024-01-15T11:27:42;9.37;;;2.20;;
11791;SDS011;5953;52.372;9.918;2024-01-15T11:30:11;5.17;;;1.60;;
11791;SDS011;5953;52.372;9.918;2024-01-15T11:32:44;4.67;;;1.73;;
11791;SDS011;5953;52.372;9.918;2024-01-15T11:35:13;5.57;;;2.00;;
11791;SDS011;5953;52.372;9.918;2024-01-15T11:37:57;7.60;;;2.10;;
11791;SDS011;5953;52.372;9.918;2024-01-15T11:40:38;5.17;;;1.80;;
11791;SDS011;5953;52.372;9.918;2024-01-15T11:43:09;7.07;;;1.60;;
11791;SDS011;5953;52.372;9.918;2024-01-15T11:45:37;7.80;;;1.40;;
11791;SDS011;5953;52.372;9.918;2024-01-15T11:48:12;5.37;;;2.10;;
11791;SDS011;5953;52.372;9.918;2024-01-15T11:50:43;4.13;;;1.73;;
11791;SDS011;5953;52.372;9.918;2024-01-15T11:56:01;2.90;;;1.73;;
11791;SDS011;5953;52.372;9.918;2024-01-15T11:58:30;3.23;;;1.60;;
11791;SDS011;5953;52.372;9.918;2024-01-15T12:00:58;4.83;;;1.70;;
11791;SDS011;5953;52.372;9.918;2024-01-15T12:03:27;7.70;;;2.00;;
11791;SDS011;5953;52.372;9.918;2024-01-15T12:05:55;6.90;;;2.10;;
11791;SDS011;5953;52.372;9.918;2024-01-15T12:08:24;5.43;;;1.60;;
11791;SDS011;5953;52.372;9.918;2024-01-15T12:10:53;7.73;;;1.97;;
11791;SDS011;5953;52.372;9.918;2024-01-15T12:13:21;5.53;;;1.90;;
11791;SDS011;5953;52.372;9.918;2024-01-15T12:15:49;4.97;;;1.60;;
11791;SDS011;5953;52.372;9.918;2024-01-15T12:18:17;9.20;;;2.13;;
11791;SDS011;5953;52.372;9.918;2024-01-15T12:20:48;9.23;;;2.37;;
11791;SDS011;5953;52.372;9.918;2024-01-15T12:23:16;4.33;;;2.07;;
11791;SDS011;5953;52.372;9.918;2024-01-15T12:25:44;4.50;;;1.80;;
11791;SDS011;5953;52.372;9.918;2024-01-15T12:28:13;6.97;;;2.30;;
11791;SDS011;5953;52.372;9.918;2024-01-15T12:30:42;4.17;;;1.70;;
11791;SDS011;5953;52.372;9.918;2024-01-15T12:33:17;3.93;;;1.90;;
11791;SDS011;5953;52.372;9.918;2024-01-15T12:35:45;5.77;;;1.83;;
11791;SDS011;5953;52.372;9.918;2024-01-15T12:38:15;7.40;;;1.70;;
11791;SDS011;5953;52.372;9.918;2024-01-15T12:40:45;9.13;;;2.60;;
11791;SDS011;5953;52.372;9.918;2024-01-15T12:43:13;12.13;;;1.73;;
11791;SDS011;5953;52.372;9.918;2024-01-15T12:45:41;6.53;;;2.20;;
11791;SDS011;5953;52.372;9.918;2024-01-15T12:48:09;9.77;;;2.33;;
11791;SDS011;5953;52.372;9.918;2024-01-15T12:50:40;7.60;;;2.00;;
11791;SDS011;5953;52.372;9.918;2024-01-15T12:53:10;7.27;;;1.97;;
11791;SDS011;5953;52.372;9.918;2024-01-15T12:55:40;4.13;;;1.80;;
11791;SDS011;5953;52.372;9.918;2024-01-15T12:58:07;9.20;;;1.97;;
11791;SDS011;5953;52.372;9.918;2024-01-15T13:00:35;9.20;;;2.67;;
11791;SDS011;5953;52.372;9.918;2024-01-15T13:03:03;3.77;;;1.67;;
11791;SDS011;5953;52.372;9.918;2024-01-15T13:05:32;6.03;;;1.93;;
11791;SDS011;5953;52.372;9.918;2024-01-15T13:08:00;5.70;;;1.67;;
11791;SDS011;5953;52.372;9.918;2024-01-15T13:10:29;8.37;;;1.80;;
11791;SDS011;5953;52.372;9.918;2024-01-15T13:12:59;9.90;;;2.70;;
11791;SDS011;5953;52.372;9.918;2024-01-15T13:15:27;6.60;;;1.60;;
11791;SDS011;5953;52.372;9.918;2024-01-15T13:17:54;5.90;;;1.77;;
11791;SDS011;5953;52.372;9.918;2024-01-15T13:20:22;4.83;;;1.93;;
11791;SDS011;5953;52.372;9.918;2024-01-15T13:22:50;2.60;;;1.63;;
11791;SDS011;5953;52.372;9.918;2024-01-15T13:25:18;4.27;;;1.67;;
11791;SDS011;5953;52.372;9.918;2024-01-15T13:27:47;6.87;;;1.80;;
11791;SDS011;5953;52.372;9.918;2024-01-15T13:30:17;6.27;;;1.70;;
11791;SDS011;5953;52.372;9.918;2024-01-15T13:32:45;6.93;;;2.93;;
11791;SDS011;5953;52.372;9.918;2024-01-15T13:35:13;4.57;;;1.43;;
11791;SDS011;5953;52.372;9.918;2024-01-15T13:37:41;2.83;;;1.70;;
11791;SDS011;5953;52.372;9.918;2024-01-15T13:40:09;7.20;;;1.80;;
11791;SDS011;5953;52.372;9.918;2024-01-15T13:42:43;8.83;;;2.00;;
11791;SDS011;5953;52.372;9.918;2024-01-15T13:45:12;3.17;;;1.47;;
11791;SDS011;5953;52.372;9.918;2024-01-15T13:47:42;8.50;;;2.03;;
11791;SDS011;5953;52.372;9.918;2024-01-15T13:50:11;2.53;;;1.13;;
11791;SDS011;5953;52.372;9.918;2024-01-15T13:52:39;6.83;;;1.57;;
11791;SDS011;5953;52.372;9.918;2024-01-15T13:55:07;7.20;;;1.70;;
11791;SDS011;5953;52.372;9.918;2024-01-15T13:57:36;9.37;;;2.60;;
11791;SDS011;5953;52.372;9.918;2024-01-15T14:00:04;5.67;;;1.63;;
11791;SDS011;5953;52.372;9.918;2024-01-15T14:02:37;4.60;;;2.10;;
11791;SDS011;5953;52.372;9.918;2024-01-15T14:05:07;8.20;;;2.10;;
11791;SDS011;5953;52.372;9.918;2024-01-15T14:07:38;5.10;;;1.60;;
11791;SDS011;5953;52.372;9.918;2024-01-15T14:10:05;5.63;;;1.60;;
11791;SDS011;5953;52.372;9.918;2024-01-15T14:12:34;6.27;;;1.70;;
11791;SDS011;5953;52.372;9.918;2024-01-15T14:15:03;3.30;;;1.40;;
11791;SDS011;5953;52.372;9.918;2024-01-15T14:17:32;12.47;;;2.20;;
11791;SDS011;5953;52.372;9.918;2024-01-15T14:20:00;4.07;;;1.37;;
11791;SDS011;5953;52.372;9.918;2024-01-15T14:22:32;4.07;;;1.87;;
11791;SDS011;5953;52.372;9.918;2024-01-15T14:25:00;5.20;;;1.47;;
11791;SDS011;5953;52.372;9.918;2024-01-15T14:27:28;5.27;;;1.83;;
11791;SDS011;5953;52.372;9.918;2024-01-15T14:29:56;14.03;;;1.80;;
11791;SDS011;5953;52.372;9.918;2024-01-15T14:32:26;3.33;;;1.77;;
11791;SDS011;5953;52.372;9.918;2024-01-15T14:34:54;4.13;;;1.83;;
11791;SDS011;5953;52.372;9.918;2024-01-15T14:37:23;3.73;;;2.10;;
11791;SDS011;5953;52.372;9.918;2024-01-15T14:39:52;3.93;;;1.80;;
11791;SDS011;5953;52.372;9.918;2024-01-15T14:42:20;3.40;;;1.80;;
11791;SDS011;5953;52.372;9.918;2024-01-15T14:44:48;2.33;;;1.73;;
11791;SDS011;5953;52.372;9.918;2024-01-15T14:47:16;4.37;;;2.00;;
11791;SDS011;5953;52.372;9.918;2024-01-15T14:49:46;5.37;;;2.03;;
11791;SDS011;5953;52.372;9.918;2024-01-15T14:52:14;5.27;;;2.50;;
11791;SDS011;5953;52.372;9.918;2024-01-15T14:54:42;4.10;;;2.00;;
11791;SDS011;5953;52.372;9.918;2024-01-15T14:57:11;6.67;;;3.00;;
11791;SDS011;5953;52.372;9.918;2024-01-15T14:59:39;7.60;;;2.80;;
11791;SDS011;5953;52.372;9.918;2024-01-15T15:02:07;3.30;;;2.03;;
11791;SDS011;5953;52.372;9.918;2024-01-15T15:04:39;3.67;;;1.93;;
11791;SDS011;5953;52.372;9.918;2024-01-15T15:07:10;6.83;;;2.50;;
11791;SDS011;5953;52.372;9.918;2024-01-15T15:09:39;5.33;;;2.67;;
11791;SDS011;5953;52.372;9.918;2024-01-15T15:12:07;3.87;;;2.20;;
11791;SDS011;5953;52.372;9.918;2024-01-15T15:14:37;6.80;;;2.10;;